createdAt,value
2022-10-21T00:00:14.710Z,15.60
2022-10-21T00:04:15.090Z,14.17
2022-10-21T00:08:15.662Z,9.60
2022-10-21T00:12:18.641Z,8.63
2022-10-21T00:16:21.877Z,8.13
2022-10-21T00:24:42.714Z,9.37
2022-10-21T00:28:46.112Z,10.90
2022-10-21T00:32:46.183Z,10.00
2022-10-21T00:36:46.310Z,10.60
2022-10-21T00:40:46.410Z,9.50
2022-10-21T00:45:23.390Z,9.50
2022-10-21T00:49:37.084Z,9.07
2022-10-21T00:53:42.524Z,9.87
2022-10-21T00:57:42.874Z,9.83
2022-10-21T01:01:46.070Z,12.13
2022-10-21T01:05:47.894Z,9.97
2022-10-21T01:09:47.985Z,9.60
2022-10-21T01:14:29.536Z,9.30
2022-10-21T01:18:42.270Z,8.83
2022-10-21T01:23:23.169Z,9.33
2022-10-21T01:27:50.635Z,8.27
2022-10-21T01:32:05.138Z,8.10
2022-10-21T01:36:25.264Z,7.70
2022-10-21T01:40:32.736Z,8.60
2022-10-21T01:44:43.697Z,8.40
2022-10-21T01:48:53.811Z,9.67
2022-10-21T01:53:00.485Z,8.80
2022-10-21T01:57:02.502Z,8.73
2022-10-21T02:01:05.919Z,8.97
2022-10-21T02:05:17.359Z,9.60
2022-10-21T02:09:17.406Z,9.60
2022-10-21T02:13:25.917Z,9.97
2022-10-21T02:17:29.639Z,9.73
2022-10-21T02:21:39.262Z,9.83
2022-10-21T02:25:43.913Z,10.07
2022-10-21T02:29:49.642Z,10.30
2022-10-21T02:34:07.527Z,10.10
2022-10-21T02:38:22.532Z,9.90
2022-10-21T02:42:31.560Z,9.83
2022-10-21T02:46:40.384Z,9.63
2022-10-21T02:50:40.615Z,9.97
2022-10-21T02:54:43.374Z,9.93
2022-10-21T02:58:43.459Z,9.93
2022-10-21T03:02:43.564Z,10.10
2022-10-21T03:06:43.620Z,10.27
2022-10-21T03:10:49.118Z,10.57
2022-10-21T03:14:50.684Z,10.67
2022-10-21T03:18:50.743Z,11.43
2022-10-21T03:22:50.775Z,13.80
2022-10-21T03:26:53.445Z,14.47
2022-10-21T03:30:53.512Z,15.47
2022-10-21T03:34:53.856Z,14.67
2022-10-21T03:38:53.943Z,14.20
2022-10-21T03:42:56.630Z,13.90
2022-10-21T03:46:56.763Z,12.90
2022-10-21T03:50:58.898Z,12.77
2022-10-21T03:54:59.029Z,11.93
2022-10-21T03:59:01.676Z,11.70
2022-10-21T04:03:01.806Z,11.33
2022-10-21T04:07:01.981Z,11.87
2022-10-21T04:11:02.732Z,12.10
2022-10-21T04:15:05.749Z,12.70
2022-10-21T04:19:05.984Z,11.80
2022-10-21T04:23:06.089Z,12.23
2022-10-21T04:27:06.424Z,12.73
2022-10-21T04:31:09.149Z,12.23
2022-10-21T04:35:10.067Z,12.73
2022-10-21T04:39:11.368Z,12.60
2022-10-21T04:43:11.704Z,12.97
2022-10-21T04:47:14.400Z,14.37
2022-10-21T04:51:14.522Z,17.57
2022-10-21T04:55:14.645Z,16.80
2022-10-21T04:59:16.023Z,15.53
2022-10-21T05:03:18.734Z,13.73
2022-10-21T05:07:19.018Z,13.57
2022-10-21T05:11:19.096Z,14.37
2022-10-21T05:15:19.599Z,14.47
2022-10-21T05:19:25.595Z,13.30
2022-10-21T05:23:29.002Z,13.13
2022-10-21T05:27:29.136Z,13.83
2022-10-21T05:31:29.646Z,14.00
2022-10-21T05:35:32.447Z,13.50
2022-10-21T05:39:32.655Z,14.53
2022-10-21T05:43:32.976Z,13.60
2022-10-21T05:47:33.955Z,13.37
2022-10-21T05:51:36.711Z,13.93
2022-10-21T05:55:37.027Z,13.70
2022-10-21T05:59:39.140Z,12.90
2022-10-21T06:03:39.514Z,14.07
2022-10-21T06:07:42.545Z,13.07
2022-10-21T06:11:51.737Z,13.50
2022-10-21T06:15:51.981Z,13.40
2022-10-21T06:19:52.162Z,12.33
2022-10-21T06:23:56.540Z,13.07
2022-10-21T06:27:59.634Z,12.60
2022-10-21T06:31:59.812Z,12.83
2022-10-21T06:36:00.194Z,13.07
2022-10-21T06:40:04.638Z,13.50
2022-10-21T06:44:04.718Z,11.93
2022-10-21T06:48:05.087Z,11.67
2022-10-21T06:52:05.335Z,14.77
2022-10-21T06:56:13.719Z,13.57
2022-10-21T07:00:17.044Z,12.63
2022-10-21T07:04:17.185Z,12.07
2022-10-21T07:08:19.814Z,12.00
2022-10-21T07:12:25.127Z,11.70
2022-10-21T07:16:29.085Z,11.50
2022-10-21T07:20:29.324Z,11.27
2022-10-21T07:24:29.536Z,11.63
2022-10-21T07:28:32.288Z,12.00
2022-10-21T07:32:53.536Z,11.47
2022-10-21T07:36:54.021Z,10.57
2022-10-21T07:40:54.129Z,11.00
2022-10-21T07:44:59.535Z,11.00
2022-10-21T07:49:00.121Z,11.60
2022-10-21T07:53:10.927Z,11.93
2022-10-21T07:57:12.542Z,11.57
2022-10-21T08:01:16.052Z,12.10
2022-10-21T08:05:16.405Z,12.60
2022-10-21T08:09:17.206Z,11.93
2022-10-21T08:13:17.430Z,11.60
2022-10-21T08:17:20.474Z,11.97
2022-10-21T08:21:20.630Z,11.63
2022-10-21T08:25:21.091Z,10.97
2022-10-21T08:29:21.307Z,11.07
2022-10-21T08:33:24.026Z,11.27
2022-10-21T08:37:25.672Z,12.07
2022-10-21T08:42:17.086Z,11.53
2022-10-21T08:46:34.306Z,10.83
2022-10-21T08:56:02.403Z,11.27
2022-10-21T09:00:41.037Z,11.63
2022-10-21T09:17:38.158Z,11.30
2022-10-21T09:49:54.054Z,12.07
2022-10-21T09:54:20.239Z,11.77
2022-10-21T09:58:53.467Z,12.03
2022-10-21T10:02:54.995Z,13.23
2022-10-21T10:06:55.394Z,13.07
2022-10-21T10:11:04.927Z,13.67
2022-10-21T10:15:30.836Z,13.47
2022-10-21T10:19:32.340Z,13.53
2022-10-21T10:23:32.394Z,13.67
2022-10-21T10:27:32.649Z,14.30
2022-10-21T10:31:38.952Z,13.07
2022-10-21T10:35:42.171Z,13.27
2022-10-21T10:39:44.794Z,13.10
2022-10-21T10:43:52.924Z,13.13
2022-10-21T10:48:05.057Z,12.40
2022-10-21T10:52:22.435Z,16.23
2022-10-21T10:56:31.841Z,16.50
2022-10-21T11:00:46.370Z,12.30
2022-10-21T11:05:11.756Z,12.38
2022-10-21T11:09:12.473Z,12.80
2022-10-21T11:13:18.272Z,12.63
2022-10-21T11:17:26.558Z,13.23
2022-10-21T11:21:47.380Z,13.18
2022-10-21T11:25:57.335Z,12.73
2022-10-21T11:30:11.478Z,12.00
2022-10-21T11:34:25.335Z,12.25
2022-10-21T11:39:11.069Z,12.80
2022-10-21T11:43:31.431Z,12.95
2022-10-21T11:47:44.574Z,13.50
2022-10-21T11:52:00.885Z,15.00
2022-10-21T11:56:20.218Z,13.50
2022-10-21T12:00:25.604Z,13.47
2022-10-21T12:04:37.247Z,14.43
2022-10-21T12:08:48.285Z,12.93
2022-10-21T12:12:58.736Z,13.90
2022-10-21T12:17:02.970Z,13.83
2022-10-21T12:21:03.862Z,14.05
2022-10-21T12:25:29.166Z,13.50
2022-10-21T12:30:00.938Z,12.90
2022-10-21T12:34:08.124Z,13.43
2022-10-21T12:38:31.582Z,13.02
2022-10-21T12:42:44.384Z,12.18
2022-10-21T12:48:00.586Z,12.88
2022-10-21T12:52:31.646Z,11.98
2022-10-21T12:56:47.886Z,12.40
2022-10-21T13:01:03.110Z,11.75
2022-10-21T13:05:08.647Z,12.98
2022-10-21T13:09:43.280Z,11.60
2022-10-21T13:25:26.909Z,10.90
2022-10-21T13:29:48.269Z,10.45
2022-10-21T13:33:55.462Z,10.98
2022-10-21T13:42:41.592Z,10.02
2022-10-21T13:46:45.063Z,9.82
2022-10-21T13:50:48.599Z,9.32
2022-10-21T13:54:49.005Z,9.50
2022-10-21T13:58:52.639Z,9.07
2022-10-21T14:02:55.941Z,8.23
2022-10-21T14:07:00.979Z,7.30
2022-10-21T14:11:04.413Z,8.45
2022-10-21T14:15:19.284Z,9.65
2022-10-21T14:19:26.265Z,10.00
2022-10-21T14:23:27.414Z,10.20
2022-10-21T14:27:32.189Z,12.88
2022-10-21T14:31:42.983Z,11.60
2022-10-21T14:36:07.072Z,9.70
2022-10-21T14:40:22.440Z,11.05
2022-10-21T14:44:26.601Z,10.38
2022-10-21T14:48:34.153Z,11.13
2022-10-21T14:52:42.711Z,12.73
2022-10-21T14:56:46.806Z,10.55
2022-10-21T15:00:47.126Z,10.07
2022-10-21T15:04:58.117Z,14.68
2022-10-21T15:09:20.525Z,14.98
2022-10-21T15:13:22.489Z,24.08
2022-10-21T15:17:22.741Z,26.00
2022-10-21T15:21:39.819Z,12.20
2022-10-21T15:25:41.277Z,12.50
2022-10-21T15:29:47.996Z,11.98
2022-10-21T15:33:50.749Z,12.52
2022-10-21T15:37:55.285Z,12.45
2022-10-21T15:41:57.472Z,14.38
2022-10-21T15:45:57.748Z,11.40
2022-10-21T15:49:58.044Z,12.10
2022-10-21T15:54:00.820Z,10.85
2022-10-21T15:58:00.976Z,13.88
2022-10-21T16:02:02.315Z,12.05
2022-10-21T16:06:02.473Z,9.48
2022-10-21T16:10:15.178Z,10.07
2022-10-21T16:14:15.421Z,10.13
2022-10-21T16:18:17.686Z,11.40
2022-10-21T16:22:23.892Z,21.98
2022-10-21T16:26:33.200Z,23.98
2022-10-21T16:30:39.196Z,19.27
2022-10-21T16:34:39.494Z,16.48
2022-10-21T16:38:39.581Z,19.52
2022-10-21T16:42:42.509Z,18.80
2022-10-21T16:46:49.797Z,16.83
2022-10-21T16:50:50.086Z,14.68
2022-10-21T16:54:50.360Z,15.83
2022-10-21T16:58:53.777Z,13.23
2022-10-21T17:02:54.509Z,14.07
2022-10-21T17:06:57.305Z,15.67
2022-10-21T17:11:00.684Z,17.93
2022-10-21T17:15:03.949Z,18.03
2022-10-21T17:19:04.133Z,18.67
2022-10-21T17:23:05.202Z,24.77
2022-10-21T17:27:05.392Z,23.00
2022-10-21T17:31:08.734Z,23.27
2022-10-21T17:35:17.084Z,20.03
2022-10-21T17:39:17.660Z,29.90
2022-10-21T17:43:18.983Z,20.90
2022-10-21T17:47:21.697Z,19.53
2022-10-21T17:51:22.489Z,29.03
2022-10-21T17:55:23.029Z,26.97
2022-10-21T17:59:23.280Z,28.83
2022-10-21T18:03:26.399Z,27.57
2022-10-21T18:07:26.533Z,28.50
2022-10-21T18:11:26.737Z,23.53
2022-10-21T18:15:28.411Z,26.23
2022-10-21T18:19:31.240Z,24.53
2022-10-21T18:23:31.601Z,21.30
2022-10-21T18:27:31.926Z,27.40
2022-10-21T18:31:35.444Z,26.13
2022-10-21T18:35:38.226Z,26.10
2022-10-21T18:39:38.456Z,27.47
2022-10-21T18:43:41.525Z,25.70
2022-10-21T18:47:42.236Z,28.53
2022-10-21T18:51:46.071Z,24.53
2022-10-21T18:55:46.338Z,23.37
2022-10-21T18:59:46.522Z,17.97
2022-10-21T19:03:47.603Z,26.17
2022-10-21T19:07:50.444Z,16.77
2022-10-21T19:11:51.069Z,18.27
2022-10-21T19:15:51.245Z,18.93
2022-10-21T19:19:52.871Z,19.77
2022-10-21T19:23:56.522Z,22.43
2022-10-21T19:27:56.617Z,21.03
2022-10-21T19:31:57.674Z,22.53
2022-10-21T19:35:57.793Z,20.17
2022-10-21T19:40:00.687Z,28.77
2022-10-21T19:44:01.615Z,21.80
2022-10-21T19:48:01.713Z,20.80
2022-10-21T19:52:05.932Z,18.50
2022-10-21T19:56:11.156Z,18.70
2022-10-21T20:00:13.965Z,23.83
2022-10-21T20:04:15.378Z,17.13
2022-10-21T20:08:15.608Z,18.87
2022-10-21T20:12:18.512Z,14.57
2022-10-21T20:16:20.869Z,14.23
2022-10-21T20:20:23.879Z,13.03
2022-10-21T20:24:24.060Z,14.43
2022-10-21T20:28:28.967Z,20.40
2022-10-21T20:32:31.808Z,13.37
2022-10-21T20:36:35.275Z,13.03
2022-10-21T20:40:35.422Z,13.47
2022-10-21T20:44:38.370Z,13.93
2022-10-21T20:48:42.524Z,17.57
2022-10-21T20:52:42.698Z,20.83
2022-10-21T20:56:44.685Z,18.23
2022-10-21T21:00:47.458Z,16.87
2022-10-21T21:04:47.603Z,15.53
2022-10-21T21:09:02.841Z,14.93
2022-10-21T21:13:08.268Z,20.20
2022-10-21T21:17:11.179Z,21.50
2022-10-21T21:21:15.379Z,24.63
2022-10-21T21:25:15.495Z,19.23
2022-10-21T21:29:16.343Z,20.70
2022-10-21T21:33:19.241Z,16.80
2022-10-21T21:37:19.332Z,14.80
2022-10-21T21:41:20.244Z,13.93
2022-10-21T21:45:20.432Z,15.30
2022-10-21T21:49:23.199Z,14.63
2022-10-21T21:53:25.029Z,15.30
2022-10-21T21:57:28.663Z,14.77
2022-10-21T22:01:32.031Z,13.97
2022-10-21T22:05:35.069Z,14.80
2022-10-21T22:09:35.347Z,15.83
2022-10-21T22:13:35.590Z,17.40
2022-10-21T22:17:35.717Z,15.40
2022-10-21T22:21:38.405Z,15.23
2022-10-21T22:25:38.705Z,15.30
2022-10-21T22:29:38.924Z,14.60
2022-10-21T22:33:40.333Z,15.13
2022-10-21T22:37:43.190Z,14.97
2022-10-21T22:41:43.461Z,20.43
2022-10-21T22:45:46.124Z,19.03
2022-10-21T22:49:49.361Z,18.60
2022-10-21T22:53:55.441Z,19.77
2022-10-21T22:57:57.018Z,17.93
2022-10-21T23:01:57.140Z,16.43
2022-10-21T23:05:57.277Z,16.17
2022-10-21T23:10:01.403Z,16.57
2022-10-21T23:14:03.056Z,16.93
2022-10-21T23:18:08.668Z,16.70
2022-10-21T23:22:08.802Z,17.53
2022-10-21T23:26:11.568Z,17.83
2022-10-21T23:30:13.672Z,17.30
2022-10-21T23:34:13.804Z,16.93
2022-10-21T23:38:13.914Z,17.10
2022-10-21T23:42:16.587Z,18.07
2022-10-21T23:46:16.905Z,17.57
2022-10-21T23:50:17.435Z,17.97
2022-10-21T23:54:17.542Z,17.33
2022-10-21T23:58:20.265Z,16.27
